Íslenskir flugvellir

Veldu flugvelli í þeirri röð sem þeir eiga að birtast og styddu á hnappinn

Uppfært síðast 14.08.2020 - kl. 18:05

SIGMET síðustu 6 klst.

Engin SIGMET skeyti bárust síðustu 6 klst.

Vestmannaeyjar

METAR síðustu 3 klst

TímiSkeyti
2020-08-14 18.00METAR BIVM 141800Z 25007KT CAVOK 12/09 Q1008
2020-08-14 17.00METAR BIVM 141700Z 26008KT 9999 FEW009 12/10 Q1008
2020-08-14 16.00METAR BIVM 141600Z 26009KT 9999 FEW009 12/09 Q1008

TAF

TAFBIVM2020-08-14 16.03Z14170224007KT 9999 SCT014 BECMG 1422/1500 BKN010

Allur vindur er réttvísandi bæði í Metar og frá sjálfvirkum veðurstöðvum




Aðrir tengdir vefir



Þetta vefsvæði byggir á Eplica